Time;durP1;ratioP1;P1;durP2;ratioP2;P2;SDS_P1;SDS_P2;PMS_P1;PMS_P2;Temp;Humidity;BMP_temperature;BMP_pressure;BME280_temperature;BME280_humidity;BME280_pressure;Samples;Min_cycle;Max_cycle;Signal;HPM_P1;HPM_P2
2024/02/19 00:02:18;;;;;;;27.23;4.10;;;7.60;99.90;;;;;;7373739;19;20019;-68
2024/02/19 00:04:45;;;;;;;25.45;4.28;;;7.60;99.90;;;;;;7375556;19;20023;-63
2024/02/19 00:07:12;;;;;;;23.00;4.38;;;7.60;99.90;;;;;;7378572;19;20442;-63
2024/02/19 00:09:39;;;;;;;25.38;4.38;;;7.60;99.90;;;;;;7376243;19;20887;-63
2024/02/19 00:12:07;;;;;;;22.88;4.40;;;7.50;99.90;;;;;;7375933;19;20014;-67
2024/02/19 00:14:34;;;;;;;29.88;5.72;;;7.60;99.90;;;;;;7375503;19;20030;-67
2024/02/19 00:17:01;;;;;;;22.13;4.88;;;7.60;99.90;;;;;;7378487;19;20022;-63
2024/02/19 00:19:28;;;;;;;24.70;3.80;;;7.50;99.90;;;;;;7374642;19;20011;-63
2024/02/19 00:21:55;;;;;;;21.67;4.00;;;7.60;99.90;;;;;;7379035;19;20890;-68
2024/02/19 00:24:22;;;;;;;24.52;4.20;;;7.50;99.90;;;;;;7373172;19;20023;-69
2024/02/19 00:26:49;;;;;;;21.73;4.85;;;7.60;99.90;;;;;;7375126;19;20014;-67
2024/02/19 00:29:16;;;;;;;24.40;4.28;;;7.60;99.90;;;;;;7371848;19;20382;-67
2024/02/19 00:31:43;;;;;;;17.42;3.38;;;7.60;99.90;;;;;;7381055;19;20031;-63
2024/02/19 00:34:10;;;;;;;26.52;4.60;;;7.60;99.90;;;;;;7375810;19;20078;-63
2024/02/19 00:36:37;;;;;;;22.17;4.43;;;7.60;99.90;;;;;;7381243;19;20049;-62
2024/02/19 00:39:04;;;;;;;17.88;3.70;;;7.60;99.90;;;;;;7374177;19;20581;-67
2024/02/19 00:41:31;;;;;;;21.90;3.38;;;7.60;99.90;;;;;;7380594;19;20035;-63
2024/02/19 00:43:58;;;;;;;21.35;3.33;;;7.60;99.90;;;;;;7378784;19;20014;-66
2024/02/19 00:46:25;;;;;;;18.70;3.67;;;7.60;99.90;;;;;;7377506;19;20090;-67
2024/02/19 00:48:52;;;;;;;16.13;3.13;;;7.70;99.90;;;;;;7374247;19;20014;-67
2024/02/19 00:51:19;;;;;;;21.10;2.83;;;7.70;99.90;;;;;;7376823;19;20290;-67
2024/02/19 00:53:46;;;;;;;12.80;2.30;;;7.70;99.90;;;;;;7370190;19;20056;-67
2024/02/19 00:56:13;;;;;;;13.68;3.05;;;7.70;99.90;;;;;;7372992;19;20086;-63
2024/02/19 00:58:40;;;;;;;13.68;1.92;;;7.70;99.90;;;;;;7378480;19;20026;-63
2024/02/19 01:01:07;;;;;;;16.15;2.22;;;7.80;99.90;;;;;;7373603;19;20781;-64
2024/02/19 01:03:35;;;;;;;13.55;2.25;;;7.80;99.90;;;;;;7377567;19;20743;-63
2024/02/19 01:06:02;;;;;;;11.80;1.83;;;7.80;99.90;;;;;;7376566;19;20032;-63
2024/02/19 01:08:29;;;;;;;13.38;2.08;;;7.80;99.90;;;;;;7379112;19;20640;-63
2024/02/19 01:10:56;;;;;;;14.10;1.65;;;7.70;99.90;;;;;;7373774;19;20022;-68
2024/02/19 01:13:26;;;;;;;9.20;2.78;;;7.70;99.90;;;;;;7372423;19;20466;-64
2024/02/19 01:15:53;;;;;;;14.48;2.38;;;7.70;99.90;;;;;;7373174;19;20026;-68
2024/02/19 01:18:22;;;;;;;12.43;2.22;;;7.60;99.90;;;;;;7374763;19;20022;-68
2024/02/19 01:20:49;;;;;;;13.60;2.53;;;7.70;99.90;;;;;;7364460;19;20052;-68
2024/02/19 01:23:16;;;;;;;9.40;1.40;;;7.60;99.90;;;;;;7374409;19;20058;-63
2024/02/19 01:25:43;;;;;;;13.70;2.33;;;7.70;99.90;;;;;;7374978;19;20570;-68
2024/02/19 01:28:09;;;;;;;6.28;2.30;;;7.70;99.90;;;;;;7372977;19;20489;-68
2024/02/19 01:30:35;;;;;;;5.75;1.23;;;7.70;99.90;;;;;;7376634;19;20014;-63
2024/02/19 01:33:01;;;;;;;9.43;2.33;;;7.70;99.90;;;;;;7381237;19;20026;-64
2024/02/19 01:35:28;;;;;;;7.00;1.20;;;7.70;99.90;;;;;;7376297;19;20018;-64
2024/02/19 01:37:54;;;;;;;7.88;1.20;;;7.70;99.90;;;;;;7381004;19;20027;-68
2024/02/19 01:40:20;;;;;;;11.20;1.35;;;7.80;99.90;;;;;;7374331;19;20018;-68
2024/02/19 01:43:00;;;;;;;7.75;1.50;;;7.80;99.90;;;;;;7374882;19;20686;-64
2024/02/19 01:45:27;;;;;;;8.45;1.83;;;7.80;99.90;;;;;;7378061;19;20115;-66
2024/02/19 01:47:57;;;;;;;9.55;1.75;;;7.80;99.90;;;;;;7378670;19;20023;-64
2024/02/19 01:50:26;;;;;;;8.07;1.40;;;7.80;99.90;;;;;;7378003;19;20022;-68
2024/02/19 01:52:56;;;;;;;9.25;2.35;;;7.80;99.90;;;;;;7371745;19;20078;-68
2024/02/19 01:55:23;;;;;;;9.07;1.52;;;7.80;99.90;;;;;;7374947;19;20807;-63
2024/02/19 01:57:51;;;;;;;11.77;1.80;;;7.80;99.90;;;;;;7377437;19;20014;-63
2024/02/19 02:00:18;;;;;;;7.97;1.42;;;7.90;99.90;;;;;;7376991;19;20026;-63
2024/02/19 02:02:45;;;;;;;5.40;1.55;;;7.90;99.90;;;;;;7380551;19;20018;-63
2024/02/19 02:05:12;;;;;;;8.68;1.48;;;7.80;99.90;;;;;;7373985;19;21042;-67
2024/02/19 02:07:41;;;;;;;8.57;1.63;;;7.80;99.90;;;;;;7380515;19;20022;-68
2024/02/19 02:10:08;;;;;;;9.00;1.20;;;7.90;99.90;;;;;;7379165;19;20499;-67
2024/02/19 02:12:37;;;;;;;7.00;1.65;;;7.90;99.90;;;;;;7385743;19;20570;-63
2024/02/19 02:15:03;;;;;;;10.23;1.65;;;7.90;99.90;;;;;;7383388;19;20014;-63
2024/02/19 02:17:30;;;;;;;10.77;2.70;;;7.90;99.90;;;;;;7386595;19;20581;-63
2024/02/19 02:19:56;;;;;;;11.55;2.03;;;7.80;99.90;;;;;;7386078;19;20785;-63
2024/02/19 02:22:25;;;;;;;7.68;1.55;;;7.90;99.90;;;;;;7384795;19;20018;-63
2024/02/19 02:24:52;;;;;;;9.85;2.03;;;7.80;99.90;;;;;;7383229;19;20018;-63
2024/02/19 02:27:19;;;;;;;11.15;2.20;;;7.90;99.90;;;;;;7381968;19;20048;-68
2024/02/19 02:29:47;;;;;;;9.50;2.22;;;7.90;99.90;;;;;;7386871;19;20861;-63
2024/02/19 02:32:14;;;;;;;12.20;2.45;;;7.80;99.90;;;;;;7383005;19;20010;-63
2024/02/19 02:34:41;;;;;;;11.70;2.78;;;7.80;99.90;;;;;;7378266;19;20049;-63
2024/02/19 02:37:07;;;;;;;10.00;2.10;;;7.80;99.90;;;;;;7380080;19;20014;-63
2024/02/19 02:39:35;;;;;;;10.95;2.40;;;7.80;99.90;;;;;;7384781;19;20098;-62
2024/02/19 02:42:04;;;;;;;11.43;2.40;;;7.80;99.90;;;;;;7383065;19;20019;-62
2024/02/19 02:44:37;;;;;;;10.82;2.40;;;7.80;99.90;;;;;;7378056;19;20018;-63
2024/02/19 02:47:04;;;;;;;9.82;2.47;;;7.70;99.90;;;;;;7380188;19;21390;-63
2024/02/19 02:49:31;;;;;;;13.15;2.22;;;7.70;99.90;;;;;;7380380;19;20014;-63
2024/02/19 02:51:59;;;;;;;7.85;2.03;;;7.70;99.90;;;;;;7376538;19;20033;-66
2024/02/19 02:54:26;;;;;;;7.45;1.85;;;7.60;99.90;;;;;;7375430;19;20015;-67
2024/02/19 02:56:53;;;;;;;11.50;2.05;;;7.60;99.90;;;;;;7385703;19;20011;-63
2024/02/19 02:59:20;;;;;;;9.50;1.95;;;7.60;99.90;;;;;;7379615;19;20026;-68
2024/02/19 03:01:47;;;;;;;9.32;2.08;;;7.60;99.90;;;;;;7381725;19;20026;-68
2024/02/19 03:04:17;;;;;;;8.02;2.22;;;7.60;99.90;;;;;;7373875;19;20518;-64
2024/02/19 03:06:44;;;;;;;8.07;2.10;;;7.60;99.90;;;;;;7380900;19;20056;-62
2024/02/19 03:09:11;;;;;;;4.47;1.65;;;7.60;99.90;;;;;;7375518;19;20483;-63
2024/02/19 03:11:38;;;;;;;6.18;1.30;;;7.70;99.90;;;;;;7379544;19;20014;-62
2024/02/19 03:14:06;;;;;;;7.45;1.58;;;7.60;99.90;;;;;;7379330;19;20019;-67
2024/02/19 03:16:34;;;;;;;13.18;2.30;;;7.60;99.90;;;;;;7374105;19;20026;-68
2024/02/19 03:19:04;;;;;;;12.50;2.83;;;7.60;99.90;;;;;;7373982;19;20035;-63
2024/02/19 03:21:32;;;;;;;6.30;1.77;;;7.60;99.90;;;;;;7379591;19;20064;-67
2024/02/19 03:23:59;;;;;;;11.82;2.28;;;7.60;99.90;;;;;;7377219;19;20097;-67
2024/02/19 03:26:27;;;;;;;9.52;2.08;;;7.70;99.90;;;;;;7377837;19;20022;-63
2024/02/19 03:28:54;;;;;;;17.90;2.40;;;7.60;99.90;;;;;;7377997;19;20026;-67
2024/02/19 03:31:21;;;;;;;16.52;2.63;;;7.60;99.90;;;;;;7374492;19;20022;-67
2024/02/19 03:33:48;;;;;;;13.50;2.70;;;7.60;99.90;;;;;;7377990;19;20022;-63
2024/02/19 03:36:18;;;;;;;14.43;2.60;;;7.60;99.90;;;;;;7374370;19;20045;-63
2024/02/19 03:38:45;;;;;;;17.15;2.55;;;7.60;99.90;;;;;;7378609;19;20079;-64
2024/02/19 03:41:12;;;;;;;16.00;2.90;;;7.60;99.90;;;;;;7382921;19;20475;-67
2024/02/19 03:43:38;;;;;;;16.23;2.58;;;7.60;99.90;;;;;;7376387;19;20589;-68
2024/02/19 03:46:05;;;;;;;17.70;2.92;;;7.60;99.90;;;;;;7377862;19;20479;-63
2024/02/19 03:48:32;;;;;;;25.33;3.92;;;7.70;99.90;;;;;;7380372;19;20015;-63
2024/02/19 03:50:58;;;;;;;15.05;2.63;;;7.60;99.90;;;;;;7380649;19;20061;-67
2024/02/19 03:53:24;;;;;;;17.73;2.55;;;7.70;99.90;;;;;;7374943;19;20078;-67
2024/02/19 03:55:51;;;;;;;21.73;2.97;;;7.70;99.90;;;;;;7377306;19;20523;-67
2024/02/19 03:58:17;;;;;;;12.73;2.28;;;7.70;99.90;;;;;;7377888;19;20046;-63
2024/02/19 04:00:43;;;;;;;13.05;2.22;;;7.70;99.90;;;;;;7375503;19;20019;-67
2024/02/19 04:03:09;;;;;;;14.48;3.10;;;7.70;99.90;;;;;;7375703;19;20097;-68
2024/02/19 04:05:36;;;;;;;19.77;3.35;;;7.70;99.90;;;;;;7380208;19;20018;-64
2024/02/19 04:08:02;;;;;;;18.08;2.67;;;7.70;99.90;;;;;;7382295;19;20020;-68
2024/02/19 04:10:28;;;;;;;16.33;2.85;;;7.70;99.90;;;;;;7381039;19;20081;-66
2024/02/19 04:12:54;;;;;;;17.27;3.13;;;7.70;99.90;;;;;;7378911;19;20344;-65
2024/02/19 04:15:21;;;;;;;16.90;3.08;;;7.80;99.90;;;;;;7374439;19;20047;-63
2024/02/19 04:17:48;;;;;;;17.27;3.15;;;7.80;99.90;;;;;;7379443;19;20495;-68
2024/02/19 04:20:15;;;;;;;20.27;3.15;;;7.80;99.90;;;;;;7372032;19;20620;-67
2024/02/19 04:22:41;;;;;;;23.83;3.28;;;7.80;99.90;;;;;;7377213;19;20059;-68
2024/02/19 04:25:08;;;;;;;20.63;4.38;;;7.80;99.90;;;;;;7372796;19;21390;-65
2024/02/19 04:27:36;;;;;;;23.23;3.40;;;7.80;99.90;;;;;;7376644;19;20025;-67
2024/02/19 04:30:03;;;;;;;15.80;2.95;;;7.80;99.90;;;;;;7378022;19;20018;-64
2024/02/19 04:32:32;;;;;;;23.13;3.25;;;7.80;99.90;;;;;;7374051;19;20743;-68
2024/02/19 04:34:59;;;;;;;23.02;3.40;;;7.80;99.90;;;;;;7378881;19;20019;-63
2024/02/19 04:37:26;;;;;;;17.58;3.47;;;7.80;99.90;;;;;;7377896;19;20096;-67
2024/02/19 04:39:53;;;;;;;24.52;4.35;;;7.80;99.90;;;;;;7378080;19;20031;-63
2024/02/19 04:42:20;;;;;;;24.95;5.35;;;7.80;99.90;;;;;;7378822;19;20683;-63
2024/02/19 04:44:47;;;;;;;21.48;3.70;;;7.80;99.90;;;;;;7379078;19;20769;-68
2024/02/19 04:47:14;;;;;;;21.88;3.63;;;7.80;99.90;;;;;;7369829;19;20093;-68
2024/02/19 04:49:42;;;;;;;30.20;4.95;;;7.90;99.90;;;;;;7373157;19;20022;-68
2024/02/19 04:52:09;;;;;;;25.73;4.38;;;7.80;99.90;;;;;;7372233;19;20458;-68
2024/02/19 04:54:36;;;;;;;34.15;4.70;;;7.80;99.90;;;;;;7376978;19;20019;-64
2024/02/19 04:57:03;;;;;;;31.98;5.80;;;7.80;99.90;;;;;;7375485;19;20018;-68
2024/02/19 04:59:29;;;;;;;28.80;4.32;;;7.80;99.90;;;;;;7372982;19;20033;-69
2024/02/19 05:01:56;;;;;;;28.13;4.60;;;7.80;99.90;;;;;;7373422;19;20064;-66
2024/02/19 05:04:23;;;;;;;26.77;4.43;;;7.80;99.90;;;;;;7373524;19;20078;-69
2024/02/19 05:06:50;;;;;;;19.45;3.50;;;7.80;99.90;;;;;;7375934;19;20021;-69
2024/02/19 05:09:16;;;;;;;21.08;4.43;;;7.70;99.90;;;;;;7372953;19;20375;-69
2024/02/19 05:11:42;;;;;;;31.67;5.43;;;7.80;99.90;;;;;;7376661;19;20778;-64
2024/02/19 05:14:09;;;;;;;29.88;5.80;;;7.80;99.90;;;;;;7372504;19;20034;-69
2024/02/19 05:16:40;;;;;;;25.73;4.22;;;7.80;99.90;;;;;;7372833;19;20098;-69
2024/02/19 05:19:06;;;;;;;28.92;5.88;;;7.80;99.90;;;;;;7380237;19;20623;-68
2024/02/19 05:21:33;;;;;;;28.70;4.45;;;7.80;99.90;;;;;;7369443;19;20094;-69
2024/02/19 05:24:00;;;;;;;22.38;3.80;;;7.80;99.90;;;;;;7376678;19;20014;-64
2024/02/19 05:26:27;;;;;;;31.08;4.60;;;7.80;99.90;;;;;;7376769;19;20019;-68
2024/02/19 05:28:54;;;;;;;35.08;4.57;;;7.70;99.90;;;;;;7375067;19;20045;-64
2024/02/19 05:31:34;;;;;;;28.25;5.20;;;7.70;99.90;;;;;;7378670;19;20032;-68
2024/02/19 05:34:03;;;;;;;30.17;5.15;;;7.80;99.90;;;;;;7370494;19;20034;-68
2024/02/19 05:36:29;;;;;;;28.67;5.85;;;7.80;99.90;;;;;;7374644;19;20360;-64
2024/02/19 05:38:55;;;;;;;29.00;5.18;;;7.80;99.90;;;;;;7381467;19;20018;-64
2024/02/19 05:41:21;;;;;;;26.88;4.93;;;7.80;99.90;;;;;;7383748;19;20025;-65
2024/02/19 05:43:48;;;;;;;28.65;4.65;;;7.80;99.90;;;;;;7382256;19;20779;-64
2024/02/19 05:46:14;;;;;;;23.40;4.30;;;7.80;99.90;;;;;;7384150;19;20028;-64
2024/02/19 05:48:44;;;;;;;27.35;4.35;;;7.80;99.90;;;;;;7378545;19;20034;-64
2024/02/19 05:51:12;;;;;;;34.80;5.00;;;7.80;99.90;;;;;;7378696;19;20396;-68
2024/02/19 05:53:40;;;;;;;24.95;4.50;;;7.80;99.90;;;;;;7377732;19;21436;-68
2024/02/19 05:56:15;;;;;;;27.42;5.25;;;7.80;99.90;;;;;;7377273;19;20022;-68
2024/02/19 05:58:41;;;;;;;35.65;5.55;;;7.80;99.90;;;;;;7373129;19;20057;-68
2024/02/19 06:01:09;;;;;;;32.03;4.75;;;7.80;99.90;;;;;;7383660;19;20035;-64
2024/02/19 06:03:36;;;;;;;28.17;4.70;;;7.80;99.90;;;;;;7385050;19;20018;-64
2024/02/19 06:06:03;;;;;;;29.17;5.30;;;7.90;99.90;;;;;;7384666;19;20044;-64
2024/02/19 06:08:31;;;;;;;34.47;5.25;;;7.80;99.90;;;;;;7381267;19;20050;-67
2024/02/19 06:10:59;;;;;;;33.88;6.10;;;7.80;99.90;;;;;;7375108;19;20023;-67
2024/02/19 06:13:26;;;;;;;31.52;5.35;;;7.90;99.90;;;;;;7374155;19;20053;-67
2024/02/19 06:15:53;;;;;;;30.90;5.00;;;7.90;99.90;;;;;;7377152;19;20015;-66
2024/02/19 06:18:20;;;;;;;35.78;5.50;;;7.90;99.90;;;;;;7372922;19;20053;-67
2024/02/19 06:20:48;;;;;;;33.90;5.25;;;7.90;99.90;;;;;;7377470;19;20176;-67
2024/02/19 06:23:15;;;;;;;30.75;4.97;;;7.90;99.90;;;;;;7376874;19;20014;-66
2024/02/19 06:25:43;;;;;;;29.02;5.25;;;7.90;99.90;;;;;;7374506;19;20018;-66
2024/02/19 06:28:11;;;;;;;28.20;4.95;;;7.90;99.90;;;;;;7375992;19;20023;-63
2024/02/19 06:30:39;;;;;;;30.52;4.65;;;7.90;99.90;;;;;;7383093;19;20082;-63
2024/02/19 06:33:06;;;;;;;35.63;5.65;;;7.90;99.90;;;;;;7380025;19;20018;-63
2024/02/19 06:35:36;;;;;;;29.00;4.57;;;7.90;99.90;;;;;;7381318;19;20018;-65
2024/02/19 06:38:03;;;;;;;30.15;4.82;;;7.90;99.90;;;;;;7374775;19;20022;-67
2024/02/19 06:40:30;;;;;;;24.50;5.03;;;7.90;99.90;;;;;;7374193;19;20031;-67
2024/02/19 06:42:57;;;;;;;25.25;4.88;;;8.00;99.90;;;;;;7374339;19;20082;-67
2024/02/19 06:45:24;;;;;;;27.85;5.18;;;8.00;99.90;;;;;;7370557;19;20581;-67
2024/02/19 06:47:51;;;;;;;27.33;4.63;;;8.00;99.90;;;;;;7371748;19;20081;-63
2024/02/19 06:50:18;;;;;;;33.08;5.30;;;8.00;99.90;;;;;;7370163;19;20078;-67
2024/02/19 06:52:48;;;;;;;36.35;5.45;;;8.00;99.90;;;;;;7378840;19;20039;-63
2024/02/19 06:55:16;;;;;;;26.83;5.10;;;8.00;99.90;;;;;;7380571;19;20039;-64
2024/02/19 06:57:43;;;;;;;26.55;5.22;;;8.00;99.90;;;;;;7373562;19;20093;-66
2024/02/19 07:00:11;;;;;;;23.23;5.00;;;8.00;99.90;;;;;;7372994;19;20093;-67
2024/02/19 07:02:38;;;;;;;28.70;5.35;;;8.00;99.90;;;;;;7372753;19;20050;-67
2024/02/19 07:05:06;;;;;;;33.35;6.28;;;8.00;99.90;;;;;;7375354;19;20078;-65
2024/02/19 07:07:33;;;;;;;25.55;5.55;;;8.10;99.90;;;;;;7373314;19;20081;-66
2024/02/19 07:09:59;;;;;;;23.30;5.65;;;8.10;99.90;;;;;;7376177;19;20022;-66
2024/02/19 07:12:27;;;;;;;31.77;6.32;;;8.10;99.90;;;;;;7378288;19;20935;-63
2024/02/19 07:14:55;;;;;;;22.23;5.30;;;8.10;99.90;;;;;;7377632;19;20052;-65
2024/02/19 07:17:22;;;;;;;30.52;5.22;;;8.10;99.90;;;;;;7376670;19;20099;-66
2024/02/19 07:19:49;;;;;;;29.15;6.38;;;8.10;99.90;;;;;;7378692;19;20098;-68
2024/02/19 07:22:16;;;;;;;25.60;6.28;;;8.10;99.90;;;;;;7376245;19;20018;-68
2024/02/19 07:24:42;;;;;;;39.42;6.88;;;8.10;99.90;;;;;;7380089;19;20030;-67
2024/02/19 07:27:08;;;;;;;37.50;7.60;;;8.20;99.90;;;;;;7380002;19;20039;-68
2024/02/19 07:29:35;;;;;;;32.72;7.25;;;8.20;99.90;;;;;;7375283;19;20010;-67
2024/02/19 07:32:01;;;;;;;37.38;6.97;;;8.30;99.90;;;;;;7379406;19;20018;-67
2024/02/19 07:34:27;;;;;;;42.75;7.30;;;8.30;99.90;;;;;;7377573;19;20364;-67
2024/02/19 07:36:54;;;;;;;36.35;8.00;;;8.30;99.90;;;;;;7376473;19;20052;-67
2024/02/19 07:39:20;;;;;;;32.22;6.55;;;8.30;99.90;;;;;;7372399;19;20021;-67
2024/02/19 07:41:47;;;;;;;34.63;6.95;;;8.30;99.90;;;;;;7375632;19;20068;-67
2024/02/19 07:44:13;;;;;;;33.33;7.20;;;8.30;99.90;;;;;;7374537;19;20026;-67
2024/02/19 07:46:39;;;;;;;37.03;7.47;;;8.40;99.90;;;;;;7375659;19;20033;-67
2024/02/19 07:49:05;;;;;;;30.55;6.38;;;8.40;99.90;;;;;;7372191;19;20052;-67
2024/02/19 07:51:31;;;;;;;28.70;6.35;;;8.50;99.90;;;;;;7374947;19;20019;-67
2024/02/19 07:53:58;;;;;;;28.58;7.57;;;8.50;99.90;;;;;;7376778;19;20395;-67
2024/02/19 07:56:24;;;;;;;32.13;7.43;;;8.50;99.90;;;;;;7374466;19;20025;-66
2024/02/19 07:58:51;;;;;;;34.80;8.18;;;8.50;99.90;;;;;;7373754;19;20026;-67
2024/02/19 08:01:17;;;;;;;39.47;7.95;;;8.60;99.90;;;;;;7375182;19;20581;-68
2024/02/19 08:03:44;;;;;;;28.80;7.47;;;8.60;99.90;;;;;;7373694;19;20048;-67
2024/02/19 08:06:11;;;;;;;32.63;8.45;;;8.70;99.90;;;;;;7371331;19;20042;-68
2024/02/19 08:08:38;;;;;;;30.55;10.73;;;8.70;99.90;;;;;;7371140;19;20497;-68
2024/02/19 08:11:05;;;;;;;37.33;9.88;;;8.80;99.90;;;;;;7378379;19;20537;-68
2024/02/19 08:13:32;;;;;;;28.80;9.07;;;8.80;99.90;;;;;;7375069;19;20026;-67
2024/02/19 08:15:59;;;;;;;29.92;8.02;;;8.90;99.90;;;;;;7371725;19;20512;-67
2024/02/19 08:18:26;;;;;;;26.65;7.57;;;9.00;99.90;;;;;;7373775;19;20026;-63
2024/02/19 08:20:53;;;;;;;31.48;7.38;;;9.00;99.90;;;;;;7376002;19;20060;-67
2024/02/19 08:23:20;;;;;;;30.55;7.32;;;9.10;99.90;;;;;;7378707;19;20632;-67
2024/02/19 08:25:47;;;;;;;35.30;8.20;;;9.10;99.90;;;;;;7373534;19;20078;-66
2024/02/19 08:28:15;;;;;;;25.35;8.02;;;9.10;99.90;;;;;;7375466;19;20060;-65
2024/02/19 08:30:42;;;;;;;35.33;7.82;;;9.10;99.90;;;;;;7379268;19;20919;-67
2024/02/19 08:33:08;;;;;;;32.22;7.90;;;9.20;99.90;;;;;;7376579;19;20018;-67
2024/02/19 08:35:36;;;;;;;28.83;8.02;;;9.10;99.90;;;;;;7376890;19;20034;-66
2024/02/19 08:38:02;;;;;;;25.25;8.00;;;9.20;99.90;;;;;;7375793;19;20371;-67
2024/02/19 08:40:28;;;;;;;28.13;9.15;;;9.20;99.90;;;;;;7379810;19;20018;-66
2024/02/19 08:42:54;;;;;;;28.17;8.20;;;9.20;99.90;;;;;;7380036;19;20464;-66
2024/02/19 08:45:21;;;;;;;28.85;8.48;;;9.20;99.90;;;;;;7378854;19;20015;-65
2024/02/19 08:47:47;;;;;;;27.30;7.72;;;9.30;99.90;;;;;;7382676;19;20050;-65
2024/02/19 08:50:13;;;;;;;30.40;7.78;;;9.30;99.90;;;;;;7377237;19;20021;-64
2024/02/19 08:52:39;;;;;;;26.80;7.50;;;9.40;99.90;;;;;;7379467;19;20117;-65
2024/02/19 08:55:06;;;;;;;27.33;7.93;;;9.50;99.90;;;;;;7377769;19;20035;-65
2024/02/19 08:57:32;;;;;;;33.55;8.00;;;9.50;99.90;;;;;;7379994;19;20102;-65
2024/02/19 08:59:58;;;;;;;24.77;6.75;;;9.50;99.90;;;;;;7377138;19;20995;-66
2024/02/19 09:02:25;;;;;;;23.75;7.55;;;9.60;99.90;;;;;;7356861;19;20752;-64
2024/02/19 09:04:51;;;;;;;24.92;6.68;;;9.50;99.90;;;;;;7371773;19;20256;-66
2024/02/19 09:07:17;;;;;;;27.65;5.93;;;9.60;99.90;;;;;;7368969;19;20029;-66
2024/02/19 09:09:44;;;;;;;24.30;6.50;;;9.70;99.90;;;;;;7373847;19;20011;-65
2024/02/19 09:12:11;;;;;;;15.77;5.65;;;9.70;99.90;;;;;;7381425;19;20033;-65
2024/02/19 09:14:38;;;;;;;31.42;6.97;;;9.70;99.90;;;;;;7379382;19;20025;-64
2024/02/19 09:17:05;;;;;;;25.75;7.20;;;9.80;99.90;;;;;;7382224;19;20770;-65
2024/02/19 09:19:32;;;;;;;22.55;5.82;;;9.80;99.90;;;;;;7385843;19;20053;-65
2024/02/19 09:21:58;;;;;;;21.35;6.30;;;9.80;99.90;;;;;;7384733;19;20512;-66
2024/02/19 09:24:25;;;;;;;21.50;5.95;;;9.80;99.90;;;;;;7384578;19;20102;-65
2024/02/19 09:26:52;;;;;;;20.45;6.70;;;9.90;99.90;;;;;;7383210;19;20570;-64
2024/02/19 09:29:18;;;;;;;18.38;6.45;;;10.00;99.90;;;;;;7383546;19;20021;-64
2024/02/19 09:31:45;;;;;;;19.90;5.78;;;10.00;99.90;;;;;;7380692;19;20062;-65
2024/02/19 09:34:14;;;;;;;26.48;7.35;;;10.00;99.90;;;;;;7379234;19;20090;-66
2024/02/19 09:36:43;;;;;;;21.13;6.63;;;10.10;99.90;;;;;;7380000;19;20390;-64
2024/02/19 09:39:11;;;;;;;23.10;6.82;;;10.00;99.90;;;;;;7379235;19;20052;-69
2024/02/19 09:41:39;;;;;;;18.95;6.20;;;10.00;99.90;;;;;;7379570;19;20054;-67
2024/02/19 09:44:07;;;;;;;26.55;7.85;;;9.90;99.90;;;;;;7378118;19;20018;-66
2024/02/19 09:46:40;;;;;;;23.48;7.90;;;9.90;99.90;;;;;;7379167;19;20034;-64
2024/02/19 09:49:10;;;;;;;17.92;8.02;;;9.80;99.90;;;;;;7380391;19;20018;-65
2024/02/19 09:51:44;;;;;;;23.10;8.70;;;9.80;99.90;;;;;;7380905;19;20029;-67
2024/02/19 09:54:12;;;;;;;23.70;9.02;;;9.80;99.90;;;;;;7379651;19;20019;-66
2024/02/19 09:56:41;;;;;;;19.98;9.10;;;9.80;99.90;;;;;;7377292;19;20835;-66
2024/02/19 09:59:09;;;;;;;26.05;9.25;;;9.80;99.90;;;;;;7377893;19;20018;-65
2024/02/19 10:01:36;;;;;;;23.73;9.98;;;9.80;99.90;;;;;;7375666;19;20038;-65
2024/02/19 10:04:03;;;;;;;36.15;11.05;;;9.70;99.90;;;;;;7381100;19;20026;-65
2024/02/19 10:06:34;;;;;;;28.98;10.60;;;9.70;99.90;;;;;;7377632;19;20015;-67
2024/02/19 10:09:06;;;;;;;29.38;10.65;;;9.70;99.90;;;;;;7380044;19;20010;-64
2024/02/19 10:11:37;;;;;;;23.50;11.73;;;9.60;99.90;;;;;;7374682;19;20022;-66
2024/02/19 10:14:04;;;;;;;26.90;9.88;;;9.70;99.90;;;;;;7377376;19;20052;-67
2024/02/19 10:16:32;;;;;;;27.75;12.18;;;9.60;99.90;;;;;;7376893;19;20048;-67
2024/02/19 10:19:08;;;;;;;30.40;11.70;;;9.60;99.90;;;;;;7379164;19;20022;-67
2024/02/19 10:21:34;;;;;;;31.45;10.27;;;9.70;99.90;;;;;;7376536;19;20029;-68
2024/02/19 10:24:01;;;;;;;25.45;10.07;;;9.80;99.90;;;;;;7371764;19;20026;-65
2024/02/19 10:26:27;;;;;;;26.35;9.55;;;9.80;99.90;;;;;;7377812;19;20482;-64
2024/02/19 10:28:57;;;;;;;22.20;8.50;;;9.90;99.90;;;;;;7379152;19;20026;-66
2024/02/19 10:31:27;;;;;;;25.33;9.07;;;9.90;99.90;;;;;;7376792;19;20483;-67
2024/02/19 10:33:53;;;;;;;24.73;9.40;;;9.90;99.90;;;;;;7378810;19;20394;-66
2024/02/19 10:36:22;;;;;;;23.20;8.25;;;10.00;99.90;;;;;;7374146;19;20021;-67
2024/02/19 10:38:49;;;;;;;16.77;7.07;;;10.00;99.90;;;;;;7381303;19;20024;-66
2024/02/19 10:41:17;;;;;;;31.08;8.43;;;10.00;99.90;;;;;;7375575;19;20019;-66
2024/02/19 10:43:45;;;;;;;26.48;8.52;;;10.10;99.90;;;;;;7378931;19;20022;-66
2024/02/19 10:46:15;;;;;;;24.58;7.88;;;10.10;99.90;;;;;;7377183;19;20597;-66
2024/02/19 10:48:42;;;;;;;18.57;6.73;;;10.10;99.90;;;;;;7377142;19;20022;-66
2024/02/19 10:51:12;;;;;;;15.15;5.88;;;10.10;99.90;;;;;;7381657;19;20049;-64
2024/02/19 10:53:38;;;;;;;18.80;6.82;;;10.20;99.90;;;;;;7378744;19;20014;-65
2024/02/19 10:56:18;;;;;;;20.35;7.57;;;10.20;99.90;;;;;;7380221;19;20018;-65
2024/02/19 10:58:53;;;;;;;18.42;6.95;;;10.20;99.90;;;;;;7380193;19;20014;-64
2024/02/19 11:01:21;;;;;;;18.92;7.13;;;10.20;99.90;;;;;;7379710;19;20018;-66
2024/02/19 11:03:47;;;;;;;18.42;6.93;;;10.30;99.90;;;;;;7379972;19;20066;-67
2024/02/19 11:06:13;;;;;;;18.52;7.13;;;10.30;99.90;;;;;;7376737;19;20018;-65
2024/02/19 11:08:52;;;;;;;21.35;7.15;;;10.40;99.90;;;;;;7372274;19;20098;-66
2024/02/19 11:11:22;;;;;;;18.35;7.32;;;10.50;99.90;;;;;;7377296;19;20019;-64
2024/02/19 11:13:48;;;;;;;21.33;8.70;;;10.50;99.90;;;;;;7376302;19;20495;-65
2024/02/19 11:16:18;;;;;;;23.55;9.20;;;10.70;99.90;;;;;;7378068;19;20010;-65
2024/02/19 11:18:46;;;;;;;18.57;6.13;;;10.70;99.90;;;;;;7378593;19;20015;-65
2024/02/19 11:21:13;;;;;;;15.20;6.60;;;10.80;99.90;;;;;;7374307;19;20287;-65
2024/02/19 11:23:40;;;;;;;19.58;6.30;;;10.80;99.90;;;;;;7375036;19;20054;-65
2024/02/19 11:26:07;;;;;;;19.77;6.80;;;10.80;99.90;;;;;;7373024;19;20014;-65
2024/02/19 11:28:35;;;;;;;15.13;6.38;;;10.70;99.90;;;;;;7380913;19;20032;-63
2024/02/19 11:31:03;;;;;;;20.58;6.95;;;10.70;99.90;;;;;;7378134;19;20019;-64
2024/02/19 11:33:30;;;;;;;22.15;6.72;;;10.70;99.90;;;;;;7379230;19;20421;-64
2024/02/19 11:35:59;;;;;;;13.40;6.63;;;10.60;99.90;;;;;;7377581;19;20499;-64
2024/02/19 11:38:26;;;;;;;19.70;6.68;;;10.60;99.90;;;;;;7378393;19;20011;-64
2024/02/19 11:40:53;;;;;;;20.42;6.28;;;10.50;99.90;;;;;;7377242;19;20018;-63
2024/02/19 11:43:19;;;;;;;18.27;6.28;;;10.50;99.90;;;;;;7381559;19;20019;-64
2024/02/19 11:45:46;;;;;;;19.65;6.90;;;10.50;99.90;;;;;;7378847;19;20047;-64
2024/02/19 11:48:13;;;;;;;17.15;5.45;;;10.50;99.90;;;;;;7377400;19;20086;-67
2024/02/19 11:50:42;;;;;;;18.45;5.60;;;10.50;99.90;;;;;;7380591;19;20031;-63
2024/02/19 11:53:09;;;;;;;13.77;5.45;;;10.60;99.90;;;;;;7375787;19;20400;-64
2024/02/19 11:55:35;;;;;;;17.73;5.57;;;10.70;99.90;;;;;;7377079;19;20014;-64
2024/02/19 11:58:01;;;;;;;16.88;5.72;;;10.70;99.90;;;;;;7374799;19;20023;-64
2024/02/19 12:00:31;;;;;;;14.35;5.03;;;10.70;99.90;;;;;;7376892;19;20519;-63
2024/02/19 12:02:58;;;;;;;17.42;5.70;;;10.70;99.90;;;;;;7378299;19;20026;-66
2024/02/19 12:05:26;;;;;;;22.60;5.63;;;10.70;99.90;;;;;;7375526;19;20017;-64
2024/02/19 12:07:53;;;;;;;19.13;5.20;;;10.70;99.90;;;;;;7377034;19;20026;-66
2024/02/19 12:10:19;;;;;;;19.20;7.43;;;10.70;99.90;;;;;;7375782;19;20510;-65
2024/02/19 12:12:45;;;;;;;15.43;5.63;;;10.60;99.90;;;;;;7375463;19;20818;-66
2024/02/19 12:15:13;;;;;;;21.60;5.40;;;10.50;99.90;;;;;;7372104;19;20015;-65
2024/02/19 12:17:40;;;;;;;18.35;5.85;;;10.50;99.90;;;;;;7375603;19;20056;-66
2024/02/19 12:20:10;;;;;;;16.65;5.30;;;10.40;99.90;;;;;;7374618;19;20022;-66
2024/02/19 12:22:42;;;;;;;17.70;5.75;;;10.50;99.90;;;;;;7376240;19;20483;-67
2024/02/19 12:25:13;;;;;;;13.43;5.40;;;10.50;99.90;;;;;;7378301;19;20094;-63
2024/02/19 12:27:40;;;;;;;;;;;10.50;99.90;;;;;;7381273;19;20471;-63
2024/02/19 12:30:08;;;;;;;20.67;5.30;;;10.40;99.90;;;;;;7378290;19;20651;-62
2024/02/19 12:32:35;;;;;;;17.45;5.47;;;10.40;99.90;;;;;;7376192;19;20014;-64
2024/02/19 12:35:01;;;;;;;13.25;5.85;;;10.40;99.90;;;;;;7374490;19;20055;-63
2024/02/19 12:37:30;;;;;;;16.00;5.55;;;10.60;99.90;;;;;;7378813;19;20049;-64
2024/02/19 12:39:56;;;;;;;17.48;5.50;;;10.50;99.90;;;;;;7377062;19;20027;-65
2024/02/19 12:42:23;;;;;;;19.30;5.82;;;10.50;99.90;;;;;;7371069;19;20102;-63
2024/02/19 12:44:49;;;;;;;14.60;5.43;;;10.50;99.90;;;;;;7379489;19;20018;-63
2024/02/19 12:47:15;;;;;;;15.55;5.13;;;10.50;99.90;;;;;;7376811;19;20094;-63